createdAt,value
2022-10-01T00:00:02.259Z,25.20
2022-10-01T00:05:25.256Z,24.40
2022-10-01T00:10:30.435Z,23.00
2022-10-01T00:15:33.419Z,22.50
2022-10-01T00:20:40.473Z,21.70
2022-10-01T00:25:43.942Z,22.40
2022-10-01T00:30:48.184Z,21.80
2022-10-01T00:35:54.873Z,19.50
2022-10-01T00:40:58.765Z,19.30
2022-10-01T00:46:13.772Z,18.50
2022-10-01T00:51:16.885Z,21.50
2022-10-01T00:56:19.893Z,18.60
2022-10-01T01:01:24.766Z,22.60
2022-10-01T01:06:27.810Z,20.00
2022-10-01T01:11:58.813Z,21.70
2022-10-01T01:17:10.979Z,21.50
2022-10-01T01:22:15.478Z,20.70
2022-10-01T01:27:45.176Z,23.90
2022-10-01T01:33:04.816Z,21.40
2022-10-01T01:38:14.362Z,21.10
2022-10-01T01:43:24.304Z,21.70
2022-10-01T01:48:29.490Z,22.50
2022-10-01T01:53:32.601Z,24.80
2022-10-01T01:58:36.472Z,24.10
2022-10-01T02:03:39.432Z,25.50
2022-10-01T02:08:58.311Z,21.10
2022-10-01T02:14:22.822Z,17.20
2022-10-01T02:19:36.328Z,19.00
2022-10-01T02:24:57.100Z,20.80
2022-10-01T02:35:12.243Z,17.90
2022-10-01T02:40:18.923Z,20.40
2022-10-01T02:45:25.096Z,19.00
2022-10-01T02:50:35.015Z,18.10
2022-10-01T02:55:39.924Z,20.60
2022-10-01T03:00:42.823Z,22.60
2022-10-01T03:05:45.829Z,23.70
2022-10-01T03:10:48.732Z,23.20
2022-10-01T03:15:51.888Z,22.60
2022-10-01T03:20:54.845Z,22.50
2022-10-01T03:25:57.859Z,22.90
2022-10-01T03:31:06.266Z,22.20
2022-10-01T03:36:09.188Z,24.00
2022-10-01T03:41:14.551Z,26.00
2022-10-01T03:46:18.273Z,23.90
2022-10-01T03:51:21.178Z,22.10
2022-10-01T03:56:26.231Z,26.80
2022-10-01T04:01:29.287Z,23.90
2022-10-01T04:06:32.934Z,27.00
2022-10-01T04:11:36.820Z,25.30
2022-10-01T04:16:40.048Z,22.70
2022-10-01T04:21:43.106Z,19.50
2022-10-01T04:26:46.010Z,25.00
2022-10-01T04:31:48.950Z,23.50
2022-10-01T04:36:51.920Z,18.80
2022-10-01T04:41:54.931Z,21.40
2022-10-01T04:46:57.881Z,23.80
2022-10-01T04:52:01.349Z,27.10
2022-10-01T04:57:04.458Z,23.00
2022-10-01T05:02:07.435Z,20.10
2022-10-01T05:07:10.473Z,24.60
2022-10-01T05:12:13.375Z,26.50
2022-10-01T05:17:17.404Z,28.30
2022-10-01T05:22:20.173Z,29.20
2022-10-01T05:27:23.109Z,28.40
2022-10-01T05:32:26.015Z,26.10
2022-10-01T05:37:28.918Z,24.90
2022-10-01T05:42:31.720Z,23.30
2022-10-01T05:47:34.623Z,23.50
2022-10-01T05:52:37.531Z,21.10
2022-10-01T05:57:40.435Z,21.30
2022-10-01T06:02:43.630Z,20.60
2022-10-01T06:07:48.726Z,19.60
2022-10-01T06:12:52.010Z,22.10
2022-10-01T06:17:55.126Z,15.90
2022-10-01T06:22:58.566Z,16.20
2022-10-01T06:28:02.305Z,15.90
2022-10-01T06:33:16.017Z,14.10
2022-10-01T06:38:21.309Z,16.50
2022-10-01T06:43:26.680Z,15.50
2022-10-01T06:48:31.125Z,16.50
2022-10-01T06:53:33.988Z,16.70
2022-10-01T06:58:37.501Z,15.10
2022-10-01T07:03:40.421Z,16.00
2022-10-01T07:08:43.718Z,11.90
2022-10-01T07:13:49.990Z,10.10
2022-10-01T07:18:55.362Z,10.30
2022-10-01T07:23:58.270Z,8.80
2022-10-01T07:29:01.534Z,9.00
2022-10-01T07:34:04.396Z,9.60
2022-10-01T07:39:09.862Z,10.00
2022-10-01T07:44:12.870Z,8.70
2022-10-01T07:49:19.781Z,7.60
2022-10-01T07:54:23.447Z,7.80
2022-10-01T07:59:27.402Z,6.60
2022-10-01T08:04:50.792Z,6.30
2022-10-01T08:09:54.204Z,7.10
2022-10-01T08:14:57.284Z,6.70
2022-10-01T08:20:00.420Z,8.00
2022-10-01T08:25:03.780Z,7.60
2022-10-01T08:30:07.424Z,8.80
2022-10-01T08:35:10.427Z,9.20
2022-10-01T08:40:13.297Z,8.40
2022-10-01T08:45:27.807Z,8.20
2022-10-01T08:50:30.661Z,9.70
2022-10-01T08:55:37.586Z,9.50
2022-10-01T09:00:44.785Z,8.70
2022-10-01T09:05:59.734Z,9.40
2022-10-01T09:11:12.751Z,9.30
2022-10-01T09:16:37.446Z,9.30
2022-10-01T09:21:55.493Z,9.70
2022-10-01T09:26:58.355Z,9.10
2022-10-01T09:32:04.089Z,8.60
2022-10-01T09:37:15.423Z,8.50
2022-10-01T09:42:18.737Z,10.20
2022-10-01T09:47:26.832Z,9.00
2022-10-01T09:52:39.311Z,7.40
2022-10-01T09:57:47.872Z,7.50
2022-10-01T10:02:52.454Z,8.30
2022-10-01T10:08:00.214Z,8.40
2022-10-01T10:13:05.244Z,7.80
2022-10-01T10:18:24.067Z,7.50
2022-10-01T10:23:29.512Z,6.50
2022-10-01T10:28:44.654Z,6.40
2022-10-01T10:33:54.234Z,7.30
2022-10-01T10:38:59.027Z,9.00
2022-10-01T10:44:07.582Z,8.00
2022-10-01T10:49:21.079Z,7.50
2022-10-01T10:54:40.824Z,8.00
2022-10-01T10:59:56.291Z,8.00
2022-10-01T11:05:20.485Z,8.00
2022-10-01T11:10:42.118Z,7.80
2022-10-01T11:16:20.303Z,9.40
2022-10-01T11:21:35.647Z,10.50
2022-10-01T11:26:53.404Z,7.90
2022-10-01T11:32:19.671Z,7.80
2022-10-01T11:37:25.525Z,10.90
2022-10-01T11:42:36.765Z,8.70
2022-10-01T11:47:54.885Z,7.70
2022-10-01T11:53:09.765Z,7.80
2022-10-01T11:58:43.294Z,7.70
2022-10-01T12:03:59.316Z,7.40
2022-10-01T12:09:32.723Z,7.30
2022-10-01T12:14:44.845Z,7.10
2022-10-01T12:19:52.246Z,8.40
2022-10-01T12:24:55.457Z,8.20
2022-10-01T12:30:10.151Z,9.50
2022-10-01T12:35:28.005Z,8.10
2022-10-01T12:40:38.622Z,8.50
2022-10-01T12:45:54.478Z,9.40
2022-10-01T12:51:00.089Z,9.90
2022-10-01T12:56:31.321Z,8.00
2022-10-01T13:02:14.731Z,7.60
2022-10-01T13:07:49.220Z,8.00
2022-10-01T13:13:06.651Z,7.80
2022-10-01T13:18:12.375Z,7.80
2022-10-01T13:23:30.495Z,8.10
2022-10-01T13:28:57.669Z,7.50
2022-10-01T13:34:01.905Z,8.00
2022-10-01T13:39:04.842Z,8.00
2022-10-01T13:44:08.126Z,7.20
2022-10-01T13:49:25.325Z,7.10
2022-10-01T13:54:33.285Z,6.80
2022-10-01T13:59:38.297Z,6.70
2022-10-01T14:04:43.872Z,6.60
2022-10-01T14:09:51.633Z,7.60
2022-10-01T14:15:19.223Z,7.20
2022-10-01T14:20:35.657Z,6.30
2022-10-01T14:26:03.409Z,6.90
2022-10-01T14:31:35.349Z,6.20
2022-10-01T14:36:53.640Z,6.90
2022-10-01T14:41:58.215Z,6.60
2022-10-01T14:47:21.897Z,6.30
2022-10-01T14:52:30.123Z,6.50
2022-10-01T14:58:00.578Z,6.60
2022-10-01T15:03:15.790Z,6.20
2022-10-01T15:08:23.521Z,6.20
2022-10-01T15:13:32.431Z,6.70
2022-10-01T15:18:36.912Z,7.00
2022-10-01T15:23:40.912Z,6.90
2022-10-01T15:28:44.625Z,6.80
2022-10-01T15:33:47.904Z,7.80
2022-10-01T15:38:51.740Z,8.40
2022-10-01T15:43:54.817Z,8.50
2022-10-01T15:49:17.570Z,8.70
2022-10-01T15:54:20.548Z,8.60
2022-10-01T15:59:23.659Z,8.40
2022-10-01T16:04:26.856Z,8.80
2022-10-01T16:09:30.810Z,9.60
2022-10-01T16:14:45.211Z,9.70
2022-10-01T16:19:50.734Z,8.50
2022-10-01T16:25:01.824Z,9.40
2022-10-01T16:30:07.805Z,10.50
2022-10-01T16:35:21.057Z,10.40
2022-10-01T16:40:26.721Z,10.00
2022-10-01T16:45:36.771Z,9.50
2022-10-01T16:50:40.209Z,10.80
2022-10-01T16:55:44.207Z,10.40
2022-10-01T17:00:47.103Z,11.00
2022-10-01T17:05:50.259Z,10.20
2022-10-01T17:10:58.796Z,12.50
2022-10-01T17:16:06.094Z,14.30
2022-10-01T17:21:09.732Z,20.40
2022-10-01T17:26:12.650Z,24.90
2022-10-01T17:31:18.008Z,28.60
2022-10-01T17:36:21.298Z,15.50
2022-10-01T17:41:24.304Z,24.20
2022-10-01T17:46:27.413Z,51.80
2022-10-01T17:51:30.520Z,20.10
2022-10-01T17:56:38.409Z,14.80
2022-10-01T18:01:41.857Z,11.40
2022-10-01T18:06:45.023Z,11.50
2022-10-01T18:11:51.916Z,10.50
2022-10-01T18:16:54.911Z,9.90
2022-10-01T18:21:59.902Z,9.50
2022-10-01T18:27:02.935Z,9.70
2022-10-01T18:32:17.842Z,10.80
2022-10-01T18:37:29.634Z,12.00
2022-10-01T18:42:44.577Z,12.30
2022-10-01T18:47:53.365Z,12.60
2022-10-01T18:53:08.552Z,12.40
2022-10-01T18:58:33.264Z,12.70
2022-10-01T19:04:00.443Z,11.70
2022-10-01T19:09:17.270Z,12.90
2022-10-01T19:14:37.991Z,12.90
2022-10-01T19:19:52.984Z,13.10
2022-10-01T19:25:15.398Z,13.10
2022-10-01T19:30:20.070Z,13.80
2022-10-01T19:35:27.905Z,14.70
2022-10-01T19:40:55.285Z,14.90
2022-10-01T19:46:09.352Z,14.30
2022-10-01T19:51:16.182Z,14.30
2022-10-01T19:56:26.164Z,14.70
2022-10-01T20:01:38.471Z,15.00
2022-10-01T20:06:44.723Z,15.90
2022-10-01T20:12:01.760Z,18.20
2022-10-01T20:17:23.506Z,16.70
2022-10-01T20:22:58.667Z,18.00
2022-10-01T20:28:19.461Z,19.10
2022-10-01T20:33:36.020Z,20.00
2022-10-01T20:38:45.349Z,18.50
2022-10-01T20:43:52.982Z,18.90
2022-10-01T20:49:18.305Z,16.90
2022-10-01T20:54:36.167Z,16.90
2022-10-01T20:59:51.649Z,16.20
2022-10-01T21:05:06.631Z,15.20
2022-10-01T21:10:46.322Z,16.80
2022-10-01T21:16:23.375Z,15.00
2022-10-01T21:21:55.411Z,14.70
2022-10-01T21:27:35.798Z,13.40
2022-10-01T21:33:02.083Z,10.40
2022-10-01T21:38:28.099Z,8.00
2022-10-01T21:44:12.473Z,7.20
2022-10-01T21:49:46.097Z,6.50
2022-10-01T21:55:06.204Z,6.70
2022-10-01T22:00:28.976Z,5.60
2022-10-01T22:05:41.173Z,6.10
2022-10-01T22:10:51.064Z,5.30
2022-10-01T22:15:59.393Z,5.10
2022-10-01T22:21:08.750Z,5.60
2022-10-01T22:26:17.590Z,5.50
2022-10-01T22:31:26.203Z,5.40
2022-10-01T22:36:41.842Z,5.50
2022-10-01T22:41:56.689Z,4.90
2022-10-01T22:47:02.595Z,5.70
2022-10-01T22:52:54.703Z,5.00
2022-10-01T22:58:18.544Z,4.70
2022-10-01T23:03:41.727Z,5.50
2022-10-01T23:09:18.322Z,5.70
2022-10-01T23:14:42.527Z,5.70
2022-10-01T23:20:06.875Z,5.70
2022-10-01T23:25:18.820Z,5.80
2022-10-01T23:30:22.167Z,5.90
2022-10-01T23:35:42.811Z,7.00
2022-10-01T23:46:07.595Z,7.20
2022-10-01T23:51:23.237Z,7.70
2022-10-01T23:56:48.882Z,8.50
